Time;durP1;ratioP1;P1;durP2;ratioP2;P2;SDS_P1;SDS_P2;PMS_P1;PMS_P2;Temp;Humidity;BMP_temperature;BMP_pressure;BME280_temperature;BME280_humidity;BME280_pressure;Samples;Min_cycle;Max_cycle;Signal;HPM_P1;HPM_P2
2022/06/12 00:00:40;;;;;;;;;;;16.30;99.90;;;;;;5073572;28;19946;-72
2022/06/12 00:03:08;;;;;;;;;;;16.40;99.90;;;;;;5073536;28;19924;-72
2022/06/12 00:05:36;;;;;;;;;;;16.70;99.90;;;;;;5073222;28;19978;-71
2022/06/12 00:08:06;;;;;;;;;;;16.80;99.90;;;;;;5073566;28;19932;-72
2022/06/12 00:10:33;;;;;;;;;;;16.80;99.90;;;;;;5073484;28;19929;-71
2022/06/12 00:13:00;;;;;;;;;;;16.60;99.90;;;;;;5073306;28;19924;-72
2022/06/12 00:15:29;;;;;;;;;;;16.40;99.90;;;;;;5073061;28;19932;-72
2022/06/12 00:17:56;;;;;;;;;;;16.30;99.90;;;;;;5073175;28;19939;-71
2022/06/12 00:20:23;;;;;;;;;;;16.40;99.90;;;;;;5073087;28;19982;-72
2022/06/12 00:22:51;;;;;;;;;;;16.30;99.90;;;;;;5073299;28;19924;-71
2022/06/12 00:25:20;;;;;;;;;;;16.20;99.90;;;;;;5072723;28;19951;-71
2022/06/12 00:27:47;;;;;;;;;;;16.10;99.90;;;;;;5073232;28;20295;-71
2022/06/12 00:30:16;;;;;;;;;;;16.10;99.90;;;;;;5073253;28;19928;-71
2022/06/12 00:32:46;;;;;;;;;;;16.10;99.90;;;;;;5073105;28;19924;-71
2022/06/12 00:35:13;;;;;;;;;;;16.10;99.90;;;;;;5072883;28;19929;-71
2022/06/12 00:37:40;;;;;;;;;;;16.20;99.90;;;;;;5072201;28;19925;-71
2022/06/12 00:40:07;;;;;;;;;;;16.00;99.90;;;;;;5072382;28;20358;-71
2022/06/12 00:42:37;;;;;;;;;;;16.00;99.90;;;;;;5072776;28;19928;-72
2022/06/12 00:45:24;;;;;;;;;;;16.00;99.90;;;;;;5072410;28;19947;-72
2022/06/12 00:47:50;;;;;;;;;;;16.10;99.90;;;;;;5072506;28;19925;-72
2022/06/12 00:50:17;;;;;;;;;;;15.90;99.90;;;;;;5072333;28;19928;-71
2022/06/12 00:52:46;;;;;;;;;;;16.00;99.90;;;;;;5072391;28;20050;-71
2022/06/12 00:55:15;;;;;;;;;;;16.00;99.90;;;;;;5072238;28;19928;-72
2022/06/12 00:57:43;;;;;;;;;;;15.90;99.90;;;;;;5072575;28;20348;-72
2022/06/12 01:00:12;;;;;;;;;;;15.80;99.90;;;;;;5072283;28;19986;-71
2022/06/12 01:02:40;;;;;;;;;;;15.90;99.90;;;;;;5072449;28;19925;-71
2022/06/12 01:07:55;;;;;;;;;;;15.90;99.90;;;;;;5072398;28;20454;-72
2022/06/12 01:10:25;;;;;;;;;;;15.90;99.90;;;;;;5072098;28;20438;-72
2022/06/12 01:12:55;;;;;;;;;;;16.00;99.90;;;;;;5072450;28;19928;-72
2022/06/12 01:15:23;;;;;;;;;;;15.80;99.90;;;;;;5072073;28;19928;-71
2022/06/12 01:17:52;;;;;;;;;;;15.70;99.90;;;;;;5072283;28;20002;-71
2022/06/12 01:20:21;;;;;;;;;;;15.70;99.90;;;;;;5072222;28;19925;-71
2022/06/12 01:23:06;;;;;;;;;;;15.70;99.90;;;;;;5072032;28;19924;-72
2022/06/12 01:26:03;;;;;;;;;;;15.70;99.90;;;;;;5071819;28;20031;-71
2022/06/12 01:28:37;;;;;;;;;;;15.60;99.90;;;;;;5010068;28;19925;-72
2022/06/12 01:31:08;;;;;;;;;;;15.60;99.90;;;;;;5060295;28;20377;-73
2022/06/12 01:33:40;;;;;;;;;;;15.60;99.90;;;;;;5072060;28;19929;-73
2022/06/12 01:36:12;;;;;;;;;;;15.60;99.90;;;;;;5071721;28;19925;-73
2022/06/12 01:38:42;;;;;;;;;;;15.70;99.90;;;;;;5071874;28;20347;-73
2022/06/12 01:41:14;;;;;;;;;;;15.70;99.90;;;;;;5071808;28;19928;-73
2022/06/12 01:43:45;;;;;;;;;;;15.70;99.90;;;;;;5071907;28;19973;-73
2022/06/12 01:46:16;;;;;;;;;;;15.60;99.90;;;;;;5071876;28;19925;-73
2022/06/12 01:48:45;;;;;;;;;;;15.50;99.90;;;;;;5071796;28;19971;-73
2022/06/12 01:51:16;;;;;;;;;;;15.40;99.90;;;;;;5071420;28;19970;-73
2022/06/12 01:53:50;;;;;;;;;;;15.40;99.90;;;;;;5071838;28;19924;-73
2022/06/12 01:56:20;;;;;;;;;;;15.30;99.90;;;;;;5071518;28;19978;-73
2022/06/12 01:58:53;;;;;;;;;;;15.40;99.90;;;;;;5071951;28;20380;-73
2022/06/12 02:01:25;;;;;;;;;;;15.40;99.90;;;;;;5071896;28;19924;-73
2022/06/12 02:03:53;;;;;;;;;;;15.40;99.90;;;;;;5071934;28;19978;-73
2022/06/12 02:06:22;;;;;;;;;;;15.50;99.90;;;;;;5071370;28;20385;-73
2022/06/12 02:08:52;;;;;;;;;;;15.20;99.90;;;;;;5071500;28;20343;-73
2022/06/12 02:14:08;;;;;;;;;;;15.30;99.90;;;;;;5071714;28;19930;-73
2022/06/12 02:16:37;;;;;;;;;;;15.20;99.90;;;;;;5071276;28;19925;-73
2022/06/12 02:19:06;;;;;;;;;;;15.10;99.90;;;;;;5071701;28;19971;-73
2022/06/12 02:21:37;;;;;;;;;;;15.00;99.90;;;;;;5071574;28;19925;-73
2022/06/12 02:24:06;;;;;;;;;;;15.20;99.90;;;;;;5071622;28;19925;-73
2022/06/12 02:26:36;;;;;;;;;;;15.20;99.90;;;;;;5071141;28;19925;-73
2022/06/12 02:29:04;;;;;;;;;;;15.00;99.90;;;;;;5071467;28;20023;-73
2022/06/12 02:31:34;;;;;;;;;;;15.20;99.90;;;;;;5071480;28;19978;-73
2022/06/12 02:34:03;;;;;;;;;;;15.10;99.90;;;;;;5071564;28;20343;-73
2022/06/12 02:36:32;;;;;;;;;;;14.90;99.90;;;;;;5071374;28;20447;-73
2022/06/12 02:39:01;;;;;;;;;;;14.60;99.90;;;;;;5071273;28;19970;-73
2022/06/12 02:41:30;;;;;;;;;;;14.60;99.90;;;;;;5071282;28;19925;-71
2022/06/12 02:43:59;;;;;;;;;;;14.60;99.90;;;;;;5071294;28;19931;-71
2022/06/12 02:46:31;;;;;;;;;;;14.40;99.90;;;;;;5071126;28;19928;-71
2022/06/12 02:48:59;;;;;;;;;;;14.50;99.90;;;;;;5071152;28;19924;-71
2022/06/12 02:51:29;;;;;;;;;;;14.50;99.90;;;;;;5071535;28;20375;-69
2022/06/12 02:54:01;;;;;;;;;;;14.50;99.90;;;;;;5071410;28;19929;-72
2022/06/12 02:56:39;;;;;;;;;;;14.50;99.90;;;;;;5071296;28;19975;-73
2022/06/12 02:59:09;;;;;;;;;;;14.70;99.90;;;;;;5071330;28;19964;-73
2022/06/12 03:01:38;;;;;;;;;;;14.80;99.90;;;;;;5071944;28;19928;-73
2022/06/12 03:04:09;;;;;;;;;;;14.50;99.90;;;;;;5074726;28;19978;-73
2022/06/12 03:06:37;;;;;;;;;;;14.50;99.90;;;;;;5074411;28;19936;-73
2022/06/12 03:09:06;;;;;;;;;;;14.50;99.90;;;;;;5074946;28;19924;-73
2022/06/12 03:11:36;;;;;;;;;;;14.40;99.90;;;;;;5074718;28;19931;-73
2022/06/12 03:14:08;;;;;;;;;;;14.50;99.90;;;;;;5075018;28;19947;-73
2022/06/12 03:16:37;;;;;;;;;;;14.60;99.90;;;;;;5074712;28;19980;-73
2022/06/12 03:19:05;;;;;;;;;;;14.70;99.90;;;;;;5074251;28;20045;-73
2022/06/12 03:21:39;;;;;;;;;;;14.80;99.90;;;;;;5074629;28;20408;-72
2022/06/12 03:24:13;;;;;;;;;;;14.80;99.90;;;;;;5074415;28;19931;-73
2022/06/12 03:26:42;;;;;;;;;;;14.50;99.90;;;;;;5074142;28;19931;-73
2022/06/12 03:29:17;;;;;;;;;;;14.50;99.90;;;;;;5074044;28;19924;-73
2022/06/12 03:31:47;;;;;;;;;;;14.60;99.90;;;;;;5074266;28;19979;-73
2022/06/12 03:34:16;;;;;;;;;;;14.50;99.90;;;;;;5074328;28;19928;-73
2022/06/12 03:36:48;;;;;;;;;;;14.50;99.90;;;;;;5073998;28;19924;-73
2022/06/12 03:39:17;;;;;;;;;;;14.60;99.90;;;;;;5074420;28;19955;-73
2022/06/12 03:41:46;;;;;;;;;;;14.70;99.90;;;;;;5074152;28;19928;-73
2022/06/12 03:44:17;;;;;;;;;;;14.60;99.90;;;;;;5074345;28;19947;-73
2022/06/12 03:46:46;;;;;;;;;;;14.60;99.90;;;;;;5073889;28;19924;-73
2022/06/12 03:49:16;;;;;;;;;;;14.60;99.90;;;;;;5073717;28;19947;-73
2022/06/12 03:51:49;;;;;;;;;;;14.60;99.90;;;;;;5074391;28;19924;-73
2022/06/12 03:54:20;;;;;;;;;;;14.70;99.90;;;;;;5073744;28;19978;-73
2022/06/12 03:59:38;;;;;;;;;;;14.70;99.90;;;;;;5073866;28;20010;-73
2022/06/12 04:02:06;;;;;;;;;;;14.80;99.90;;;;;;5073814;28;19924;-73
2022/06/12 04:04:34;;;;;;;;;;;14.90;99.90;;;;;;5073532;28;19994;-73
2022/06/12 04:07:04;;;;;;;;;;;14.90;99.90;;;;;;5073216;28;19983;-73
2022/06/12 04:09:33;;;;;;;;;;;14.80;99.90;;;;;;5073454;28;19931;-73
2022/06/12 04:12:02;;;;;;;;;;;14.80;99.90;;;;;;5073182;28;20339;-73
2022/06/12 04:14:31;;;;;;;;;;;14.80;99.90;;;;;;5073384;28;19924;-70
2022/06/12 04:16:59;;;;;;;;;;;14.80;99.90;;;;;;5073210;28;19982;-71
2022/06/12 04:19:27;;;;;;;;;;;14.90;99.90;;;;;;5073099;28;19932;-72
2022/06/12 04:21:59;;;;;;;;;;;15.00;99.90;;;;;;5073448;28;19928;-73
2022/06/12 04:24:31;;;;;;;;;;;15.00;99.90;;;;;;5073574;28;20331;-73
2022/06/12 04:26:59;;;;;;;;;;;15.10;99.90;;;;;;5072798;28;20456;-73
2022/06/12 04:29:27;;;;;;;;;;;15.20;99.90;;;;;;5073068;28;19931;-73
2022/06/12 04:31:56;;;;;;;;;;;15.10;99.90;;;;;;5072982;28;19924;-73
2022/06/12 04:34:23;;;;;;;;;;;15.20;99.90;;;;;;5072988;28;20011;-71
2022/06/12 04:36:51;;;;;;;;;;;15.20;99.90;;;;;;5072806;28;19925;-71
2022/06/12 04:39:20;;;;;;;;;;;15.20;99.90;;;;;;5072903;28;20024;-71
2022/06/12 04:41:48;;;;;;;;;;;15.20;99.90;;;;;;5072966;28;19932;-71
2022/06/12 04:44:15;;;;;;;;;;;15.30;99.90;;;;;;5072729;28;19970;-71
2022/06/12 04:46:43;;;;;;;;;;;15.20;99.90;;;;;;5072562;28;19924;-71
2022/06/12 04:49:11;;;;;;;;;;;15.20;99.90;;;;;;5072580;28;19970;-71
2022/06/12 04:51:38;;;;;;;;;;;15.30;99.90;;;;;;5072723;28;19924;-72
2022/06/12 04:54:05;;;;;;;;;;;15.40;99.90;;;;;;5072626;28;19928;-71
2022/06/12 04:56:34;;;;;;;;;;;15.40;99.90;;;;;;5072259;28;19931;-71
2022/06/12 04:59:02;;;;;;;;;;;15.50;99.90;;;;;;5072537;28;19931;-71
2022/06/12 05:01:32;;;;;;;;;;;15.50;99.90;;;;;;5072850;28;19924;-71
2022/06/12 05:03:59;;;;;;;;;;;15.60;99.90;;;;;;5072909;28;19924;-71
2022/06/12 05:06:26;;;;;;;;;;;15.70;99.90;;;;;;5072211;28;19933;-71
2022/06/12 05:08:53;;;;;;;;;;;15.80;99.90;;;;;;5072225;28;20385;-71
2022/06/12 05:11:20;;;;;;;;;;;15.80;99.90;;;;;;5072231;28;20403;-71
2022/06/12 05:13:47;;;;;;;;;;;15.90;99.90;;;;;;5072265;28;20474;-72
2022/06/12 05:16:20;;;;;;;;;;;16.00;99.90;;;;;;5071962;28;19931;-72
2022/06/12 05:18:48;;;;;;;;;;;16.20;99.90;;;;;;5072109;28;20388;-71
2022/06/12 05:21:15;;;;;;;;;;;16.20;99.90;;;;;;5072348;28;20385;-71
2022/06/12 05:23:41;;;;;;;;;;;16.30;99.90;;;;;;5072080;28;19924;-71
2022/06/12 05:26:09;;;;;;;;;;;16.40;99.90;;;;;;5071323;28;20041;-71
2022/06/12 05:28:36;;;;;;;;;;;16.50;99.90;;;;;;5072315;28;19928;-71
2022/06/12 05:31:03;;;;;;;;;;;16.60;99.90;;;;;;5072020;28;19932;-71
2022/06/12 05:33:31;;;;;;;;;;;16.70;99.90;;;;;;5072097;28;19924;-71
2022/06/12 05:35:58;;;;;;;;;;;16.80;99.90;;;;;;5071846;28;19931;-71
2022/06/12 05:38:25;;;;;;;;;;;16.90;99.90;;;;;;5072131;28;19931;-71
2022/06/12 05:40:52;;;;;;;;;;;16.90;99.90;;;;;;5071875;28;19924;-71
2022/06/12 05:43:18;;;;;;;;;;;17.00;99.90;;;;;;5072142;28;19954;-71
2022/06/12 05:45:45;;;;;;;;;;;17.10;99.90;;;;;;5071706;28;19924;-73
2022/06/12 05:48:13;;;;;;;;;;;17.20;99.90;;;;;;5071959;28;20388;-72
2022/06/12 05:50:47;;;;;;;;;;;17.30;99.90;;;;;;5072048;28;19951;-72
2022/06/12 05:53:14;;;;;;;;;;;17.40;99.90;;;;;;5071824;28;19924;-72
2022/06/12 05:55:42;;;;;;;;;;;17.40;99.90;;;;;;5072100;28;19924;-71
2022/06/12 05:58:08;;;;;;;;;;;17.60;99.90;;;;;;5072159;28;19924;-72
2022/06/12 06:00:35;;;;;;;;;;;17.60;99.90;;;;;;5071773;28;19924;-73
2022/06/12 06:03:02;;;;;;;;;;;17.80;99.90;;;;;;5071747;28;20347;-73
2022/06/12 06:05:29;;;;;;;;;;;17.80;99.90;;;;;;5071522;28;19976;-71
2022/06/12 06:07:57;;;;;;;;;;;17.80;99.90;;;;;;5071682;28;19947;-71
2022/06/12 06:10:25;;;;;;;;;;;17.90;99.90;;;;;;5071643;28;19924;-72
2022/06/12 06:12:52;;;;;;;;;;;18.00;99.90;;;;;;5071645;28;19979;-71
2022/06/12 06:15:19;;;;;;;;;;;18.10;99.90;;;;;;5071571;28;20367;-72
2022/06/12 06:17:46;;;;;;;;;;;18.30;99.90;;;;;;5071664;28;19929;-71
2022/06/12 06:20:14;;;;;;;;;;;18.60;99.90;;;;;;5071319;28;19929;-72
2022/06/12 06:22:41;;;;;;;;;;;18.90;99.90;;;;;;5071716;28;19924;-71
2022/06/12 06:25:10;;;;;;;;;;;18.90;99.90;;;;;;5071117;28;19928;-71
2022/06/12 06:27:37;;;;;;;;;;;18.90;99.90;;;;;;5071504;28;20393;-71
2022/06/12 06:30:04;;;;;;;;;;;19.00;99.90;;;;;;5071367;28;19979;-71
2022/06/12 06:32:32;;;;;;;;;;;19.30;99.90;;;;;;5071779;28;19924;-72
2022/06/12 06:34:58;;;;;;;;;;;19.30;99.90;;;;;;5071445;28;19932;-72
2022/06/12 06:37:25;;;;;;;;;;;19.50;99.90;;;;;;5075110;28;19971;-72
2022/06/12 06:39:52;;;;;;;;;;;19.40;99.90;;;;;;5074967;28;19978;-71
2022/06/12 06:42:20;;;;;;;;;;;19.50;99.90;;;;;;5075179;28;19928;-71
2022/06/12 06:47:32;;;;;;;;;;;19.90;99.90;;;;;;5075241;28;19978;-72
2022/06/12 06:49:58;;;;;;;;;;;19.90;99.90;;;;;;5074976;28;20384;-71
2022/06/12 06:52:25;;;;;;;;;;;20.10;99.90;;;;;;5074953;28;19925;-71
2022/06/12 06:54:52;;;;;;;;;;;20.40;99.90;;;;;;5074753;28;19924;-72
2022/06/12 06:57:19;;;;;;;;;;;20.40;99.90;;;;;;5074826;28;19971;-71
2022/06/12 06:59:47;;;;;;;;;;;20.50;99.90;;;;;;5074521;28;19924;-71
2022/06/12 07:02:14;;;;;;;;;;;20.70;99.90;;;;;;5074827;28;19928;-71
2022/06/12 07:04:41;;;;;;;;;;;20.60;99.90;;;;;;5074727;28;19978;-72
2022/06/12 07:07:08;;;;;;;;;;;20.70;99.90;;;;;;5074651;28;19989;-72
2022/06/12 07:09:35;;;;;;;;;;;20.90;99.90;;;;;;5074589;28;19947;-72
2022/06/12 07:12:03;;;;;;;;;;;21.10;99.90;;;;;;5074711;28;19946;-71
2022/06/12 07:14:30;;;;;;;;;;;21.00;99.90;;;;;;5074476;28;19924;-73
2022/06/12 07:16:58;;;;;;;;;;;21.30;99.90;;;;;;5074380;28;20335;-73
2022/06/12 07:19:26;;;;;;;;;;;21.50;99.90;;;;;;5074356;28;19985;-73
2022/06/12 07:21:53;;;;;;;;;;;21.50;99.90;;;;;;5074579;28;19924;-73
2022/06/12 07:24:20;;;;;;;;;;;21.50;99.90;;;;;;5074435;28;19925;-73
2022/06/12 07:26:48;;;;;;;;;;;21.70;99.90;;;;;;5073963;28;19928;-73
2022/06/12 07:29:15;;;;;;;;;;;21.80;99.90;;;;;;5074245;28;20344;-73
2022/06/12 07:31:42;;;;;;;;;;;21.70;99.90;;;;;;5074277;28;19924;-73
2022/06/12 07:34:12;;;;;;;;;;;21.70;99.90;;;;;;5074256;28;19928;-73
2022/06/12 07:36:39;;;;;;;;;;;21.80;99.90;;;;;;5074051;28;19935;-73
2022/06/12 07:39:07;;;;;;;;;;;22.00;99.90;;;;;;5073878;28;19970;-73
2022/06/12 07:41:34;;;;;;;;;;;21.90;99.90;;;;;;5074275;28;19928;-73
2022/06/12 07:44:01;;;;;;;;;;;22.00;99.90;;;;;;5074075;28;19924;-73
2022/06/12 07:46:28;;;;;;;;;;;22.40;99.90;;;;;;5073739;28;19928;-73
2022/06/12 07:48:55;;;;;;;;;;;22.90;99.90;;;;;;5073126;28;19936;-73
2022/06/12 07:51:23;;;;;;;;;;;23.00;99.90;;;;;;5074002;28;20266;-73
2022/06/12 07:53:51;;;;;;;;;;;22.60;99.90;;;;;;5073779;28;20363;-73
2022/06/12 07:56:18;;;;;;;;;;;22.50;99.90;;;;;;5073614;28;19982;-73
2022/06/12 07:58:46;;;;;;;;;;;22.70;99.90;;;;;;5073739;28;19924;-73
2022/06/12 08:01:15;;;;;;;;;;;22.80;99.90;;;;;;5074104;28;19931;-73
2022/06/12 08:03:42;;;;;;;;;;;22.90;99.90;;;;;;5073553;28;19971;-73
2022/06/12 08:06:09;;;;;;;;;;;23.20;99.90;;;;;;5073191;28;19925;-73
2022/06/12 08:08:37;;;;;;;;;;;23.30;99.90;;;;;;5073603;28;19924;-73
2022/06/12 08:11:12;;;;;;;;;;;23.30;99.90;;;;;;5073261;28;19924;-73
2022/06/12 08:13:39;;;;;;;;;;;23.60;99.90;;;;;;5073375;28;20380;-74
2022/06/12 08:16:07;;;;;;;;;;;24.00;99.90;;;;;;5073145;28;19925;-73
2022/06/12 08:18:34;;;;;;;;;;;24.00;99.90;;;;;;5073412;28;19978;-73
2022/06/12 08:21:02;;;;;;;;;;;23.80;99.90;;;;;;5073257;28;19924;-73
2022/06/12 08:23:33;;;;;;;;;;;24.10;99.90;;;;;;5073266;28;20273;-73
2022/06/12 08:26:04;;;;;;;;;;;24.60;99.90;;;;;;5073085;28;19929;-73
2022/06/12 08:28:35;;;;;;;;;;;25.00;99.90;;;;;;5073025;28;19924;-71
2022/06/12 08:31:03;;;;;;;;;;;25.30;99.90;;;;;;5073262;28;20011;-71
2022/06/12 08:33:30;;;;;;;;;;;25.60;99.90;;;;;;5073124;28;19924;-73
2022/06/12 08:35:56;;;;;;;;;;;25.30;99.90;;;;;;5072696;28;19932;-73
2022/06/12 08:38:23;;;;;;;;;;;25.00;99.90;;;;;;5072957;28;19925;-73
2022/06/12 08:40:54;;;;;;;;;;;25.80;99.40;;;;;;5072756;28;19924;-73
2022/06/12 08:43:26;;;;;;;;;;;26.70;98.10;;;;;;5072884;28;19963;-72
2022/06/12 08:45:56;;;;;;;;;;;27.20;97.60;;;;;;5072705;28;19971;-71
2022/06/12 08:48:27;;;;;;;;;;;28.00;96.50;;;;;;5072791;28;19924;-72
2022/06/12 08:50:58;;;;;;;;;;;27.60;95.90;;;;;;5072454;28;19978;-72
2022/06/12 08:53:30;;;;;;;;;;;28.00;96.50;;;;;;5072927;28;19995;-72
2022/06/12 08:55:59;;;;;;;;;;;28.50;95.80;;;;;;5072880;28;19976;-72
2022/06/12 08:58:30;;;;;;;;;;;28.70;95.30;;;;;;5072208;28;19950;-72
2022/06/12 09:00:58;;;;;;;;;;;29.10;94.60;;;;;;5072043;28;19924;-72
2022/06/12 09:03:27;;;;;;;;;;;29.80;93.50;;;;;;5072401;28;19925;-73
2022/06/12 09:06:00;;;;;;;;;;;29.50;93.80;;;;;;5072024;28;20347;-72
2022/06/12 09:08:29;;;;;;;;;;;28.90;94.40;;;;;;5072065;28;19928;-73
2022/06/12 09:10:59;;;;;;;;;;;28.60;94.50;;;;;;5071999;28;19970;-73
2022/06/12 09:13:29;;;;;;;;;;;28.10;94.60;;;;;;5072152;28;19925;-73
2022/06/12 09:16:02;;;;;;;;;;;28.00;95.00;;;;;;5071488;28;19925;-74
2022/06/12 09:18:34;;;;;;;;;;;28.70;94.10;;;;;;5071968;28;19935;-73
2022/06/12 09:21:04;;;;;;;;;;;28.40;94.40;;;;;;5072018;28;20329;-73
2022/06/12 09:23:34;;;;;;;;;;;29.20;93.50;;;;;;5071790;28;19979;-74
2022/06/12 09:26:08;;;;;;;;;;;29.20;93.30;;;;;;5072070;28;19924;-72
2022/06/12 09:28:41;;;;;;;;;;;28.60;93.50;;;;;;5071833;28;20289;-74
2022/06/12 09:31:11;;;;;;;;;;;28.60;93.40;;;;;;5071842;28;20012;-72
2022/06/12 09:33:44;;;;;;;;;;;28.90;92.90;;;;;;5071716;28;19925;-73
2022/06/12 09:36:19;;;;;;;;;;;29.60;93.50;;;;;;5071640;28;19932;-73
2022/06/12 09:38:55;;;;;;;;;;;31.20;91.90;;;;;;5072069;28;19924;-73
2022/06/12 09:41:24;;;;;;;;;;;30.70;92.00;;;;;;5072060;28;20377;-74
2022/06/12 09:43:57;;;;;;;;;;;32.50;90.50;;;;;;5071964;28;19931;-73
2022/06/12 09:46:32;;;;;;;;;;;32.40;90.20;;;;;;5071652;28;20446;-74
2022/06/12 09:49:03;;;;;;;;;;;32.20;89.30;;;;;;5071534;28;19978;-73
2022/06/12 09:51:45;;;;;;;;;;;31.50;88.00;;;;;;5071716;28;19982;-74
2022/06/12 09:54:36;;;;;;;;;;;30.10;88.60;;;;;;5071824;28;19928;-73
2022/06/12 09:57:05;;;;;;;;;;;29.80;88.30;;;;;;5056262;28;19956;-73
2022/06/12 09:59:35;;;;;;;;;;;29.00;90.10;;;;;;5071641;28;19971;-73
2022/06/12 10:02:05;;;;;;;;;;;28.40;91.30;;;;;;5071609;28;19925;-73
2022/06/12 10:04:37;;;;;;;;;;;29.70;90.40;;;;;;5072058;28;20076;-73
2022/06/12 10:07:08;;;;;;;;;;;31.60;86.00;;;;;;5071373;28;20049;-72
2022/06/12 10:09:52;;;;;;;;;;;31.50;87.70;;;;;;5071395;28;20348;-73
2022/06/12 10:12:22;;;;;;;;;;;32.50;84.80;;;;;;5075184;28;19924;-74
2022/06/12 10:14:53;;;;;;;;;;;31.60;84.30;;;;;;5075409;28;19924;-72
2022/06/12 10:17:21;;;;;;;;;;;31.00;84.80;;;;;;5075502;28;19924;-72
2022/06/12 10:19:50;;;;;;;;;;;28.80;89.70;;;;;;5075496;28;19928;-72
2022/06/12 10:22:20;;;;;;;;;;;30.80;86.10;;;;;;5075463;28;20380;-74
2022/06/12 10:24:46;;;;;;;;;;;32.30;83.90;;;;;;5075406;28;19964;-73
2022/06/12 10:27:15;;;;;;;;;;;32.70;81.00;;;;;;5075304;28;19939;-72
2022/06/12 10:29:44;;;;;;;;;;;32.70;81.80;;;;;;5075597;28;19924;-74
2022/06/12 10:32:14;;;;;;;;;;;32.70;82.30;;;;;;5075356;28;19951;-73
2022/06/12 10:34:41;;;;;;;;;;;31.40;83.40;;;;;;5075514;28;19928;-73
2022/06/12 10:37:12;;;;;;;;;;;31.70;84.10;;;;;;5075097;28;19931;-73
2022/06/12 10:39:40;;;;;;;;;;;33.30;80.70;;;;;;5075123;28;19928;-74
2022/06/12 10:42:31;;;;;;;;;;;31.20;83.90;;;;;;5075401;28;19975;-72
2022/06/12 10:45:01;;;;;;;;;;;30.40;85.70;;;;;;5059347;28;19932;-72
2022/06/12 10:47:32;;;;;;;;;;;30.20;86.00;;;;;;5074960;28;19928;-73
2022/06/12 10:50:15;;;;;;;;;;;29.70;88.20;;;;;;5074792;28;20434;-73
2022/06/12 10:52:50;;;;;;;;;;;31.20;85.90;;;;;;5075164;28;20400;-73
2022/06/12 10:55:17;;;;;;;;;;;29.80;86.90;;;;;;5074545;28;19986;-73
2022/06/12 10:57:46;;;;;;;;;;;29.80;89.60;;;;;;5074911;28;19924;-73
2022/06/12 11:00:15;;;;;;;;;;;30.30;87.40;;;;;;5075135;28;19928;-73
2022/06/12 11:02:48;;;;;;;;;;;30.10;86.80;;;;;;5074681;28;19925;-73
2022/06/12 11:05:36;;;;;;;;;;;29.20;89.00;;;;;;5074345;28;20347;-73
2022/06/12 11:08:10;;;;;;;;;;;31.00;86.00;;;;;;5074589;28;20011;-73
2022/06/12 11:10:40;;;;;;;;;;;31.00;84.80;;;;;;5074659;28;19925;-72
2022/06/12 11:13:13;;;;;;;;;;;31.70;84.90;;;;;;5074660;28;20351;-72
2022/06/12 11:15:50;;;;;;;;;;;32.70;82.80;;;;;;5074327;28;20460;-72
2022/06/12 11:18:22;;;;;;;;;;;31.90;83.40;;;;;;5074467;28;19924;-73
2022/06/12 11:20:51;;;;;;;;;;;33.40;80.80;;;;;;5074533;28;19924;-72
2022/06/12 11:23:31;;;;;;;;;;;33.70;81.70;;;;;;5073181;28;19924;-73
2022/06/12 11:26:05;;;;;;;;;;;33.80;80.00;;;;;;5074204;28;19951;-73
2022/06/12 11:28:40;;;;;;;;;;;32.10;83.20;;;;;;5074196;28;20354;-72
2022/06/12 11:31:12;;;;;;;;;;;32.30;83.70;;;;;;5074090;28;19924;-73
2022/06/12 11:33:50;;;;;;;;;;;31.60;84.20;;;;;;5074255;28;19925;-73
2022/06/12 11:36:21;;;;;;;;;;;32.60;83.00;;;;;;5074306;28;19929;-73
2022/06/12 11:38:57;;;;;;;;;;;31.80;82.90;;;;;;5074301;28;19924;-72
2022/06/12 11:41:29;;;;;;;;;;;33.50;81.80;;;;;;5074011;28;19970;-73
2022/06/12 11:44:01;;;;;;;;;;;31.50;82.70;;;;;;5073943;28;19924;-73
2022/06/12 11:46:34;;;;;;;;;;;31.00;81.80;;;;;;5073755;28;19928;-73
2022/06/12 11:49:18;;;;;;;;;;;31.30;80.70;;;;;;5073767;28;19924;-73
2022/06/12 11:51:51;;;;;;;;;;;31.40;79.50;;;;;;5074199;28;20355;-73
2022/06/12 11:54:30;;;;;;;;;;;33.00;81.50;;;;;;5073700;28;19925;-73
2022/06/12 11:57:01;;;;;;;;;;;33.50;76.80;;;;;;5073583;28;20357;-72
2022/06/12 11:59:34;;;;;;;;;;;31.20;80.00;;;;;;5073728;28;20447;-73
2022/06/12 12:02:04;;;;;;;;;;;31.10;83.90;;;;;;5073817;28;19956;-73
2022/06/12 12:04:48;;;;;;;;;;;32.40;81.40;;;;;;5073607;28;20255;-73
2022/06/12 12:07:35;;;;;;;;;;;33.70;79.00;;;;;;5072643;28;20340;-73
2022/06/12 12:10:05;;;;;;;;;;;31.80;80.20;;;;;;5073572;28;19929;-73
2022/06/12 12:12:34;;;;;;;;;;;32.50;80.60;;;;;;5073479;28;20352;-73
2022/06/12 12:15:04;;;;;;;;;;;33.10;77.30;;;;;;5073070;28;20257;-74
2022/06/12 12:17:33;;;;;;;;;;;32.70;77.50;;;;;;5073336;28;19932;-73
2022/06/12 12:20:00;;;;;;;;;;;33.00;78.20;;;;;;5073173;28;19939;-73
2022/06/12 12:22:33;;;;;;;;;;;32.20;77.80;;;;;;5073201;28;19931;-73
2022/06/12 12:25:03;;;;;;;;;;;31.70;78.40;;;;;;5072729;28;20416;-73
2022/06/12 12:27:32;;;;;;;;;;;33.40;77.10;;;;;;5073327;28;19925;-73
2022/06/12 12:29:59;;;;;;;;;;;34.20;75.00;;;;;;5072978;28;19924;-73
2022/06/12 12:32:26;;;;;;;;;;;36.10;73.50;;;;;;5073208;28;19979;-74
2022/06/12 12:34:55;;;;;;;;;;;36.80;71.70;;;;;;5072904;28;19924;-73
2022/06/12 12:43:13;;;;;;;;;;;34.40;76.10;;;;;;5073023;28;20391;-73
2022/06/12 12:45:39;;;;;;;;;;;31.10;80.40;;;;;;5072680;28;19971;-73
2022/06/12 12:48:09;;;;;;;;;;;31.10;81.90;;;;;;5072762;28;19987;-73
2022/06/12 12:50:43;;;;;;;;;;;32.50;80.10;;;;;;5072730;28;20231;-73
2022/06/12 12:53:19;;;;;;;;;;;32.50;78.00;;;;;;5072899;28;19924;-73
2022/06/12 12:55:57;;;;;;;;;;;31.90;78.00;;;;;;5072699;28;20343;-73
2022/06/12 12:58:24;;;;;;;;;;;34.00;76.00;;;;;;5072658;28;19924;-73
2022/06/12 13:01:01;;;;;;;;;;;31.50;80.00;;;;;;5072541;28;20007;-73
2022/06/12 13:03:28;;;;;;;;;;;30.20;82.90;;;;;;5072723;28;19928;-73
2022/06/12 13:06:10;;;;;;;;;;;31.30;81.50;;;;;;5072544;28;19928;-74
2022/06/12 13:08:47;;;;;;;;;;;30.70;82.70;;;;;;5072537;28;20023;-74
2022/06/12 13:11:22;;;;;;;;;;;31.30;81.10;;;;;;5072486;28;19978;-73
2022/06/12 13:13:55;;;;;;;;;;;31.50;81.40;;;;;;5072810;28;19988;-74
2022/06/12 13:16:27;;;;;;;;;;;31.90;80.20;;;;;;5072155;28;20371;-73
2022/06/12 13:19:04;;;;;;;;;;;33.10;77.20;;;;;;5072455;28;19931;-73
2022/06/12 13:21:36;;;;;;;;;;;33.40;74.90;;;;;;5072338;28;20042;-74
2022/06/12 13:24:22;;;;;;;;;;;33.70;73.90;;;;;;5072086;28;19955;-74
2022/06/12 13:26:51;;;;;;;;;;;34.00;72.60;;;;;;5071924;28;20400;-74
2022/06/12 13:29:19;;;;;;;;;;;34.40;72.00;;;;;;5071968;28;20026;-74
2022/06/12 13:31:55;;;;;;;;;;;32.70;73.90;;;;;;5072298;28;20285;-73
2022/06/12 13:34:22;;;;;;;;;;;32.50;73.50;;;;;;5072043;28;20408;-73
2022/06/12 13:36:49;;;;;;;;;;;31.80;77.20;;;;;;5071830;28;19928;-73
2022/06/12 13:39:21;;;;;;;;;;;33.50;74.50;;;;;;5071924;28;20385;-73
2022/06/12 13:41:50;;;;;;;;;;;33.50;74.20;;;;;;5072194;28;19928;-73
2022/06/12 13:44:27;;;;;;;;;;;34.40;73.50;;;;;;5072009;28;20007;-73
2022/06/12 13:46:54;;;;;;;;;;;31.90;74.60;;;;;;5071388;28;19925;-73
2022/06/12 13:49:25;;;;;;;;;;;32.30;75.10;;;;;;5071444;28;19931;-73
2022/06/12 13:51:54;;;;;;;;;;;32.80;74.70;;;;;;5072157;28;19963;-73
2022/06/12 13:54:22;;;;;;;;;;;34.00;73.00;;;;;;5071934;28;20023;-73
2022/06/12 13:56:51;;;;;;;;;;;35.30;72.50;;;;;;5071711;28;20447;-73
2022/06/12 13:59:19;;;;;;;;;;;35.80;70.30;;;;;;5071397;28;19971;-73
2022/06/12 14:01:47;;;;;;;;;;;35.70;70.30;;;;;;5071852;28;19928;-73
2022/06/12 14:04:20;;;;;;;;;;;34.70;72.50;;;;;;5072067;28;19925;-74
2022/06/12 14:06:47;;;;;;;;;;;34.20;72.70;;;;;;5072073;28;19924;-74
2022/06/12 14:09:16;;;;;;;;;;;32.70;74.30;;;;;;5071645;28;19928;-73
2022/06/12 14:11:56;;;;;;;;;;;31.90;76.30;;;;;;5071484;28;19929;-72
2022/06/12 14:14:33;;;;;;;;;;;31.50;76.70;;;;;;5072091;28;19970;-73
2022/06/12 14:17:01;;;;;;;;;;;32.20;75.70;;;;;;5072188;28;19979;-73
2022/06/12 14:19:29;;;;;;;;;;;32.40;76.30;;;;;;5071976;28;19928;-73
2022/06/12 14:22:00;;;;;;;;;;;32.60;76.60;;;;;;5072151;28;19932;-73
2022/06/12 14:24:28;;;;;;;;;;;32.60;76.20;;;;;;5071605;28;19929;-73
2022/06/12 14:26:56;;;;;;;;;;;32.40;77.10;;;;;;5071495;28;19924;-73
2022/06/12 14:29:31;;;;;;;;;;;34.00;74.20;;;;;;5071601;28;19925;-73
2022/06/12 14:32:07;;;;;;;;;;;34.60;73.00;;;;;;5071707;28;19975;-73
2022/06/12 14:34:33;;;;;;;;;;;34.20;73.00;;;;;;5071984;28;20351;-73
2022/06/12 14:37:01;;;;;;;;;;;33.80;74.50;;;;;;5071117;28;19932;-74
2022/06/12 14:39:31;;;;;;;;;;;33.40;75.80;;;;;;5071368;28;19935;-74
2022/06/12 14:42:01;;;;;;;;;;;33.00;76.20;;;;;;5071530;28;19932;-74
2022/06/12 14:44:28;;;;;;;;;;;33.10;75.30;;;;;;5071476;28;19932;-74
2022/06/12 14:46:55;;;;;;;;;;;32.40;75.90;;;;;;5071657;28;19929;-73
2022/06/12 14:49:24;;;;;;;;;;;32.00;77.70;;;;;;5071251;28;19929;-73